createdAt,value
2019-01-24T00:00:54.346Z,-1.12
2019-01-24T00:01:54.593Z,-1.06
2019-01-24T00:02:55.570Z,-1.12
2019-01-24T00:03:54.731Z,-1.06
2019-01-24T00:04:54.760Z,-1.06
2019-01-24T00:05:54.297Z,-1.06
2019-01-24T00:06:54.464Z,-1.06
2019-01-24T00:07:55.207Z,-1.06
2019-01-24T00:08:54.446Z,-1.06
2019-01-24T00:09:54.442Z,-1.12
2019-01-24T00:10:56.255Z,-1.12
2019-01-24T00:11:54.713Z,-1.12
2019-01-24T00:12:54.336Z,-1.12
2019-01-24T00:13:54.385Z,-1.06
2019-01-24T00:14:54.434Z,-1.06
2019-01-24T00:15:54.380Z,-1
2019-01-24T00:16:54.946Z,-1
2019-01-24T00:17:54.367Z,-1
2019-01-24T00:18:54.432Z,-1
2019-01-24T00:19:54.512Z,-1
2019-01-24T00:20:54.356Z,-1
2019-01-24T00:21:56.112Z,-0.94
2019-01-24T00:22:54.563Z,-0.94
2019-01-24T00:23:54.973Z,-1
2019-01-24T00:24:54.317Z,-0.94
2019-01-24T00:25:54.265Z,-1
2019-01-24T00:26:54.286Z,-0.94
2019-01-24T00:27:54.303Z,-0.94
2019-01-24T00:28:54.420Z,-0.94
2019-01-24T00:29:54.945Z,-1
2019-01-24T00:30:54.384Z,-0.94
2019-01-24T00:31:54.283Z,-1
2019-01-24T00:32:54.368Z,-1
2019-01-24T00:33:54.436Z,-1.06
2019-01-24T00:34:54.266Z,-1.06
2019-01-24T00:35:54.519Z,-1.06
2019-01-24T00:36:54.275Z,-1.06
2019-01-24T00:37:54.534Z,-1.06
2019-01-24T00:38:54.445Z,-1.06
2019-01-24T00:39:54.623Z,-1.06
2019-01-24T00:40:54.496Z,-1.06
2019-01-24T00:41:54.751Z,-1.06
2019-01-24T00:42:54.795Z,-1.06
2019-01-24T00:43:54.730Z,-1.06
2019-01-24T00:44:54.514Z,-1
2019-01-24T00:45:54.257Z,-1
2019-01-24T00:46:54.568Z,-1
2019-01-24T00:47:54.560Z,-1
2019-01-24T00:48:54.640Z,-0.94
2019-01-24T00:49:55.187Z,-0.94
2019-01-24T00:50:54.962Z,-0.94
2019-01-24T00:51:54.409Z,-0.88
2019-01-24T00:52:54.239Z,-0.94
2019-01-24T00:53:54.754Z,-0.94
2019-01-24T00:54:54.585Z,-0.94
2019-01-24T00:55:54.283Z,-0.94
2019-01-24T00:56:54.302Z,-1
2019-01-24T00:57:54.623Z,-0.94
2019-01-24T00:58:54.329Z,-1
2019-01-24T00:59:54.256Z,-0.94
2019-01-24T01:00:54.360Z,-1
2019-01-24T01:01:54.499Z,-1.06
2019-01-24T01:02:54.276Z,-1.06
2019-01-24T01:03:54.532Z,-1.06
2019-01-24T01:04:54.469Z,-1.12
2019-01-24T01:05:54.382Z,-1.12
2019-01-24T01:06:54.551Z,-1.12
2019-01-24T01:07:54.505Z,-1.06
2019-01-24T01:08:54.244Z,-1.12
2019-01-24T01:09:54.400Z,-1.12
2019-01-24T01:10:54.407Z,-1.12
2019-01-24T01:11:54.243Z,-1.12
2019-01-24T01:12:54.322Z,-1.12
2019-01-24T01:13:54.302Z,-1.12
2019-01-24T01:14:54.378Z,-1.12
2019-01-24T01:15:54.320Z,-1.12
2019-01-24T01:16:54.182Z,-1.12
2019-01-24T01:17:54.201Z,-1.19
2019-01-24T01:18:54.278Z,-1.19
2019-01-24T01:19:54.239Z,-1.19
2019-01-24T01:20:54.224Z,-1.12
2019-01-24T01:21:54.357Z,-1.19
2019-01-24T01:22:54.364Z,-1.19
2019-01-24T01:23:54.197Z,-1.25
2019-01-24T01:24:54.591Z,-1.19
2019-01-24T01:25:54.284Z,-1.25
2019-01-24T01:26:54.239Z,-1.25
2019-01-24T01:27:54.180Z,-1.19
2019-01-24T01:28:55.275Z,-1.25
2019-01-24T01:29:54.286Z,-1.25
2019-01-24T01:30:54.178Z,-1.25
2019-01-24T01:31:54.178Z,-1.25
2019-01-24T01:32:54.205Z,-1.25
2019-01-24T01:33:54.171Z,-1.25
2019-01-24T01:34:54.272Z,-1.25
2019-01-24T01:35:54.186Z,-1.31
2019-01-24T01:36:54.149Z,-1.25
2019-01-24T01:37:54.494Z,-1.31
2019-01-24T01:38:54.208Z,-1.31
2019-01-24T01:39:54.295Z,-1.37
2019-01-24T01:40:54.169Z,-1.37
2019-01-24T01:41:54.772Z,-1.37
2019-01-24T01:42:54.403Z,-1.44
2019-01-24T01:43:54.166Z,-1.37
2019-01-24T01:44:54.199Z,-1.37
2019-01-24T01:45:54.190Z,-1.37
2019-01-24T01:46:54.213Z,-1.44
2019-01-24T01:47:55.894Z,-1.37
2019-01-24T01:48:54.222Z,-1.37
2019-01-24T01:49:54.343Z,-1.37
2019-01-24T01:50:54.149Z,-1.44
2019-01-24T01:51:54.526Z,-1.37
2019-01-24T01:52:54.197Z,-1.37
2019-01-24T01:53:54.344Z,-1.37
2019-01-24T01:54:54.791Z,-1.37
2019-01-24T01:55:55.019Z,-1.37
2019-01-24T01:56:54.292Z,-1.31
2019-01-24T01:57:55.275Z,-1.31
2019-01-24T01:58:54.999Z,-1.31
2019-01-24T01:59:55.360Z,-1.37
2019-01-24T02:00:54.233Z,-1.31
2019-01-24T02:01:54.179Z,-1.37
2019-01-24T02:02:54.688Z,-1.37
2019-01-24T02:03:54.356Z,-1.31
2019-01-24T02:04:54.196Z,-1.31
2019-01-24T02:05:54.190Z,-1.31
2019-01-24T02:06:54.647Z,-1.31
2019-01-24T02:07:54.381Z,-1.31
2019-01-24T02:08:54.141Z,-1.31
2019-01-24T02:09:54.382Z,-1.25
2019-01-24T02:10:54.407Z,-1.25
2019-01-24T02:11:54.418Z,-1.19
2019-01-24T02:12:54.146Z,-1.19
2019-01-24T02:13:54.208Z,-1.19
2019-01-24T02:14:54.424Z,-1.12
2019-01-24T02:15:54.393Z,-1.19
2019-01-24T02:16:54.181Z,-1.12
2019-01-24T02:17:54.198Z,-1.12
2019-01-24T02:18:54.229Z,-1.12
2019-01-24T02:19:54.125Z,-1.19
2019-01-24T02:20:54.586Z,-1.19
2019-01-24T02:21:54.670Z,-1.19
2019-01-24T02:22:54.262Z,-1.25
2019-01-24T02:23:54.132Z,-1.25
2019-01-24T02:24:54.340Z,-1.25
2019-01-24T02:25:54.210Z,-1.19
2019-01-24T02:26:54.098Z,-1.19
2019-01-24T02:27:54.398Z,-1.19
2019-01-24T02:28:54.335Z,-1.25
2019-01-24T02:29:54.411Z,-1.19
2019-01-24T02:30:54.326Z,-1.19
2019-01-24T02:31:54.537Z,-1.12
2019-01-24T02:32:54.707Z,-1.12
2019-01-24T02:33:54.166Z,-1.19
2019-01-24T02:34:54.556Z,-1.19
2019-01-24T02:35:54.114Z,-1.19
2019-01-24T02:36:54.250Z,-1.19
2019-01-24T02:37:54.268Z,-1.19
2019-01-24T02:38:54.225Z,-1.19
2019-01-24T02:39:54.333Z,-1.12
2019-01-24T02:40:54.409Z,-1.12
2019-01-24T02:41:54.404Z,-1.12
2019-01-24T02:42:54.488Z,-1.12
2019-01-24T02:43:54.408Z,-1.12
2019-01-24T02:44:54.479Z,-1.12
2019-01-24T02:45:54.202Z,-1.06
2019-01-24T02:46:54.068Z,-1.12
2019-01-24T02:47:54.668Z,-1.06
2019-01-24T02:48:54.192Z,-1.06
2019-01-24T02:49:54.949Z,-1.12
2019-01-24T02:50:54.382Z,-1.12
2019-01-24T02:51:54.378Z,-1.12
2019-01-24T02:52:54.138Z,-1.12
2019-01-24T02:53:54.511Z,-1.19
2019-01-24T02:54:54.592Z,-1.12
2019-01-24T02:55:54.928Z,-1.12
2019-01-24T02:56:54.116Z,-1.19
2019-01-24T02:57:54.023Z,-1.12
2019-01-24T02:58:54.392Z,-1.12
2019-01-24T02:59:54.344Z,-1.12
2019-01-24T03:00:54.019Z,-1.19
2019-01-24T03:01:54.038Z,-1.12
2019-01-24T03:02:54.215Z,-1.19
2019-01-24T03:03:54.421Z,-1.12
2019-01-24T03:04:57.468Z,-1.19
2019-01-24T03:05:54.089Z,-1.19
2019-01-24T03:06:54.210Z,-1.12
2019-01-24T03:07:54.087Z,-1.12
2019-01-24T03:08:53.998Z,-1.19
2019-01-24T03:09:55.587Z,-1.12
2019-01-24T03:10:54.087Z,-1.12
2019-01-24T03:11:54.118Z,-1.19
2019-01-24T03:12:54.206Z,-1.19
2019-01-24T03:13:54.042Z,-1.12
2019-01-24T03:14:54.116Z,-1.12
2019-01-24T03:15:54.168Z,-1.12
2019-01-24T03:16:54.306Z,-1.12
2019-01-24T03:17:54.096Z,-1.06
2019-01-24T03:18:54.363Z,-1.06
2019-01-24T03:19:54.305Z,-1.06
2019-01-24T03:20:54.019Z,-1.12
2019-01-24T03:21:54.229Z,-1.12
2019-01-24T03:22:54.365Z,-1.12
2019-01-24T03:23:54.042Z,-1.12
2019-01-24T03:24:54.281Z,-1.12
2019-01-24T03:25:54.064Z,-1.12
2019-01-24T03:26:54.001Z,-1.12
2019-01-24T03:27:54.114Z,-1.19
2019-01-24T03:28:54.260Z,-1.19
2019-01-24T03:29:54.157Z,-1.19
2019-01-24T03:30:54.326Z,-1.19
2019-01-24T03:31:54.087Z,-1.25
2019-01-24T03:32:54.522Z,-1.25
2019-01-24T03:33:54.171Z,-1.25
2019-01-24T03:34:54.253Z,-1.25
2019-01-24T03:35:54.259Z,-1.31
2019-01-24T03:36:54.101Z,-1.37
2019-01-24T03:37:53.802Z,-1.31
2019-01-24T03:38:54.525Z,-1.31
2019-01-24T03:39:54.179Z,-1.37
2019-01-24T03:40:54.418Z,-1.37
2019-01-24T03:41:54.041Z,-1.37
2019-01-24T03:42:54.065Z,-1.31
2019-01-24T03:43:54.035Z,-1.31
2019-01-24T03:44:54.259Z,-1.37
2019-01-24T03:45:53.979Z,-1.37
2019-01-24T03:46:53.966Z,-1.37
2019-01-24T03:47:54.145Z,-1.37
2019-01-24T03:48:53.953Z,-1.31
2019-01-24T03:49:54.065Z,-1.37
2019-01-24T03:50:54.301Z,-1.37
2019-01-24T03:51:54.507Z,-1.37
2019-01-24T03:52:54.068Z,-1.44
2019-01-24T03:53:54.316Z,-1.37
2019-01-24T03:54:54.151Z,-1.37
2019-01-24T03:55:54.137Z,-1.31
2019-01-24T03:56:54.038Z,-1.31
2019-01-24T03:57:54.229Z,-1.31
2019-01-24T03:58:54.133Z,-1.31
2019-01-24T03:59:54.378Z,-1.31
2019-01-24T04:00:53.975Z,-1.25
2019-01-24T04:01:54.043Z,-1.25
2019-01-24T04:02:53.958Z,-1.25
2019-01-24T04:03:53.964Z,-1.25
2019-01-24T04:04:53.945Z,-1.19
2019-01-24T04:05:54.173Z,-1.25
2019-01-24T04:06:54.397Z,-1.25
2019-01-24T04:07:54.831Z,-1.31
2019-01-24T04:08:54.195Z,-1.37
2019-01-24T04:09:54.237Z,-1.37
2019-01-24T04:10:55.030Z,-1.37
2019-01-24T04:11:54.248Z,-1.37
2019-01-24T04:12:53.973Z,-1.37
2019-01-24T04:13:54.237Z,-1.44
2019-01-24T04:14:54.426Z,-1.44
2019-01-24T04:15:54.130Z,-1.44
2019-01-24T04:16:54.181Z,-1.44
2019-01-24T04:17:55.301Z,-1.44
2019-01-24T04:18:54.254Z,-1.37
2019-01-24T04:19:54.249Z,-1.5
2019-01-24T04:20:54.408Z,-1.44
2019-01-24T04:21:54.294Z,-1.44
2019-01-24T04:22:53.896Z,-1.44
2019-01-24T04:23:55.688Z,-1.44
2019-01-24T04:24:53.928Z,-1.44
2019-01-24T04:25:53.904Z,-1.44
2019-01-24T04:26:53.977Z,-1.44
2019-01-24T04:27:54.058Z,-1.44
2019-01-24T04:28:54.084Z,-1.44
2019-01-24T04:29:54.238Z,-1.37
2019-01-24T04:30:54.149Z,-1.44
2019-01-24T04:31:54.150Z,-1.37
2019-01-24T04:32:55.900Z,-1.37
2019-01-24T04:33:54.557Z,-1.44
2019-01-24T04:34:55.587Z,-1.44
2019-01-24T04:35:54.168Z,-1.44
2019-01-24T04:36:53.937Z,-1.44
2019-01-24T04:37:53.888Z,-1.44
2019-01-24T04:38:53.860Z,-1.44
2019-01-24T04:39:53.927Z,-1.44
2019-01-24T04:40:53.881Z,-1.5
2019-01-24T04:41:53.913Z,-1.56
2019-01-24T04:42:53.877Z,-1.56
2019-01-24T04:43:53.892Z,-1.5
2019-01-24T04:45:53.919Z,-1.5
2019-01-24T04:46:54.007Z,-1.56
2019-01-24T04:47:54.192Z,-1.5
2019-01-24T04:48:53.911Z,-1.44
2019-01-24T04:49:54.392Z,-1.44
2019-01-24T04:50:53.834Z,-1.44
2019-01-24T04:51:53.920Z,-1.44
2019-01-24T04:52:53.872Z,-1.5
2019-01-24T04:53:53.956Z,-1.5
2019-01-24T04:54:54.315Z,-1.44
2019-01-24T04:55:53.894Z,-1.44
2019-01-24T04:56:53.979Z,-1.5
2019-01-24T04:57:55.366Z,-1.5
2019-01-24T04:58:53.861Z,-1.44
2019-01-24T04:59:54.304Z,-1.5
2019-01-24T05:00:54.167Z,-1.5
2019-01-24T05:01:53.941Z,-1.5
2019-01-24T05:02:54.223Z,-1.44
2019-01-24T05:03:53.880Z,-1.44
2019-01-24T05:04:53.854Z,-1.44
2019-01-24T05:05:53.902Z,-1.44
2019-01-24T05:06:53.866Z,-1.44
2019-01-24T05:07:54.097Z,-1.44
2019-01-24T05:08:53.901Z,-1.37
2019-01-24T05:09:54.190Z,-1.44
2019-01-24T05:10:53.931Z,-1.44
2019-01-24T05:11:53.889Z,-1.5
2019-01-24T05:12:53.969Z,-1.5
2019-01-24T05:13:54.349Z,-1.5
2019-01-24T05:14:54.255Z,-1.5
2019-01-24T05:15:53.881Z,-1.5
2019-01-24T05:16:55.433Z,-1.5
2019-01-24T05:17:53.878Z,-1.5
2019-01-24T05:18:54.268Z,-1.5
2019-01-24T05:19:54.577Z,-1.56
2019-01-24T05:20:53.912Z,-1.56
2019-01-24T05:21:53.984Z,-1.56
2019-01-24T05:22:54.328Z,-1.56
2019-01-24T05:23:54.312Z,-1.56
2019-01-24T05:24:54.072Z,-1.56
2019-01-24T05:25:54.441Z,-1.56
2019-01-24T05:26:54.104Z,-1.56
2019-01-24T05:27:54.065Z,-1.5
2019-01-24T05:28:54.338Z,-1.56
2019-01-24T05:29:53.950Z,-1.56
2019-01-24T05:30:54.233Z,-1.56
2019-01-24T05:31:53.765Z,-1.56
2019-01-24T05:32:55.722Z,-1.56
2019-01-24T05:33:53.962Z,-1.56
2019-01-24T05:34:54.452Z,-1.56
2019-01-24T05:35:54.185Z,-1.56
2019-01-24T05:36:53.935Z,-1.56
2019-01-24T05:37:54.706Z,-1.56
2019-01-24T05:38:53.869Z,-1.56
2019-01-24T05:39:53.976Z,-1.56
2019-01-24T05:40:53.953Z,-1.56
2019-01-24T05:41:53.816Z,-1.56
2019-01-24T05:42:53.929Z,-1.62
2019-01-24T05:43:53.966Z,-1.56
2019-01-24T05:44:54.709Z,-1.56
2019-01-24T05:45:53.761Z,-1.62
2019-01-24T05:46:54.011Z,-1.62
2019-01-24T05:47:53.822Z,-1.62
2019-01-24T05:48:53.958Z,-1.62
2019-01-24T05:49:53.869Z,-1.62
2019-01-24T05:50:53.914Z,-1.56
2019-01-24T05:51:54.446Z,-1.62
2019-01-24T05:52:53.901Z,-1.56
2019-01-24T05:53:53.782Z,-1.62
2019-01-24T05:54:54.212Z,-1.56
2019-01-24T05:55:53.770Z,-1.62
2019-01-24T05:56:53.869Z,-1.62
2019-01-24T05:57:54.077Z,-1.56
2019-01-24T05:58:53.920Z,-1.56
2019-01-24T05:59:53.925Z,-1.56
2019-01-24T06:00:55.463Z,-1.56
2019-01-24T06:01:53.762Z,-1.56
2019-01-24T06:02:54.013Z,-1.56
2019-01-24T06:03:53.760Z,-1.56
2019-01-24T06:04:54.108Z,-1.56
2019-01-24T06:05:53.768Z,-1.56
2019-01-24T06:06:53.796Z,-1.5
2019-01-24T06:07:54.031Z,-1.5
2019-01-24T06:08:55.669Z,-1.5
2019-01-24T06:09:53.749Z,-1.56
2019-01-24T06:10:53.874Z,-1.5
2019-01-24T06:11:54.054Z,-1.5
2019-01-24T06:12:55.538Z,-1.5
2019-01-24T06:13:53.822Z,-1.5
2019-01-24T06:14:54.004Z,-1.44
2019-01-24T06:15:54.720Z,-1.56
2019-01-24T06:16:55.394Z,-1.56
2019-01-24T06:17:53.766Z,-1.56
2019-01-24T06:18:55.302Z,-1.56
2019-01-24T06:19:53.883Z,-1.56
2019-01-24T06:20:55.109Z,-1.56
2019-01-24T06:21:53.736Z,-1.56
2019-01-24T06:22:53.778Z,-1.62
2019-01-24T06:23:53.756Z,-1.62
2019-01-24T06:24:53.917Z,-1.56
2019-01-24T06:25:53.797Z,-1.56
2019-01-24T06:26:53.903Z,-1.62
2019-01-24T06:27:54.065Z,-1.62
2019-01-24T06:28:53.691Z,-1.62
2019-01-24T06:29:53.745Z,-1.69
2019-01-24T06:30:56.696Z,-1.62
2019-01-24T06:31:53.666Z,-1.62
2019-01-24T06:32:53.745Z,-1.62
2019-01-24T06:33:53.758Z,-1.62
2019-01-24T06:34:53.886Z,-1.62
2019-01-24T06:35:53.741Z,-1.62
2019-01-24T06:36:54.493Z,-1.69
2019-01-24T06:37:53.800Z,-1.69
2019-01-24T06:38:53.726Z,-1.69
2019-01-24T06:39:53.689Z,-1.62
2019-01-24T06:40:53.751Z,-1.69
2019-01-24T06:41:53.761Z,-1.62
2019-01-24T06:42:54.122Z,-1.62
2019-01-24T06:43:53.765Z,-1.62
2019-01-24T06:44:53.726Z,-1.62
2019-01-24T06:45:53.837Z,-1.69
2019-01-24T06:46:53.777Z,-1.62
2019-01-24T06:47:53.776Z,-1.62
2019-01-24T06:48:53.809Z,-1.62
2019-01-24T06:49:54.022Z,-1.62
2019-01-24T06:50:53.702Z,-1.62
2019-01-24T06:51:55.310Z,-1.69
2019-01-24T06:52:55.471Z,-1.69
2019-01-24T06:53:53.872Z,-1.62
2019-01-24T06:54:54.229Z,-1.69
2019-01-24T06:55:53.916Z,-1.69
2019-01-24T06:56:53.942Z,-1.69
2019-01-24T06:57:53.709Z,-1.69
2019-01-24T06:58:53.681Z,-1.69
2019-01-24T06:59:54.355Z,-1.62
2019-01-24T07:00:54.679Z,-1.62
2019-01-24T07:01:54.113Z,-1.62
2019-01-24T07:02:54.921Z,-1.62
2019-01-24T07:03:53.965Z,-1.56
2019-01-24T07:04:53.875Z,-1.62
2019-01-24T07:05:55.841Z,-1.62
2019-01-24T07:06:53.677Z,-1.62
2019-01-24T07:07:53.693Z,-1.56
2019-01-24T07:08:53.794Z,-1.62
2019-01-24T07:09:53.686Z,-1.62
2019-01-24T07:10:53.859Z,-1.56
2019-01-24T07:11:53.862Z,-1.56
2019-01-24T07:12:53.712Z,-1.56
2019-01-24T07:13:53.983Z,-1.62
2019-01-24T07:14:53.607Z,-1.56
2019-01-24T07:15:53.747Z,-1.62
2019-01-24T07:16:53.755Z,-1.62
2019-01-24T07:17:53.936Z,-1.62
2019-01-24T07:18:54.066Z,-1.62
2019-01-24T07:19:53.745Z,-1.62
2019-01-24T07:20:53.701Z,-1.62
2019-01-24T07:21:54.945Z,-1.62
2019-01-24T07:22:53.647Z,-1.62
2019-01-24T07:23:53.916Z,-1.56
2019-01-24T07:24:53.585Z,-1.62
2019-01-24T07:25:54.357Z,-1.62
2019-01-24T07:26:53.634Z,-1.62
2019-01-24T07:27:54.896Z,-1.62
2019-01-24T07:28:53.600Z,-1.62
2019-01-24T07:29:54.449Z,-1.62
2019-01-24T07:30:55.169Z,-1.62
2019-01-24T07:31:53.785Z,-1.56
2019-01-24T07:32:53.886Z,-1.56
2019-01-24T07:33:53.786Z,-1.56
2019-01-24T07:34:53.605Z,-1.56
2019-01-24T07:35:53.805Z,-1.56
2019-01-24T07:36:54.397Z,-1.56
2019-01-24T07:37:53.591Z,-1.56
2019-01-24T07:38:53.603Z,-1.56
2019-01-24T07:39:53.722Z,-1.56
2019-01-24T07:40:53.663Z,-1.56
2019-01-24T07:41:53.730Z,-1.56
2019-01-24T07:42:53.735Z,-1.56
2019-01-24T07:43:53.838Z,-1.56
2019-01-24T07:44:53.853Z,-1.56
2019-01-24T07:45:53.635Z,-1.62
2019-01-24T07:46:54.432Z,-1.56
2019-01-24T07:47:53.815Z,-1.62
2019-01-24T07:48:53.718Z,-1.56
2019-01-24T07:49:53.904Z,-1.56
2019-01-24T07:50:53.614Z,-1.62
2019-01-24T07:51:53.825Z,-1.62
2019-01-24T07:52:54.003Z,-1.56
2019-01-24T07:53:53.765Z,-1.56
2019-01-24T07:54:53.617Z,-1.56
2019-01-24T07:55:53.622Z,-1.56
2019-01-24T07:56:53.830Z,-1.56
2019-01-24T07:57:53.605Z,-1.56
2019-01-24T07:58:55.061Z,-1.56
2019-01-24T07:59:53.593Z,-1.5
2019-01-24T08:00:53.812Z,-1.56
2019-01-24T08:01:53.811Z,-1.56
2019-01-24T08:02:53.714Z,-1.5
2019-01-24T08:03:53.704Z,-1.5
2019-01-24T08:04:53.608Z,-1.5
2019-01-24T08:05:53.841Z,-1.5
2019-01-24T08:06:53.581Z,-1.5
2019-01-24T08:07:53.558Z,-1.5
2019-01-24T08:08:53.593Z,-1.56
2019-01-24T08:09:53.560Z,-1.56
2019-01-24T08:10:53.714Z,-1.5
2019-01-24T08:11:53.634Z,-1.56
2019-01-24T08:12:53.538Z,-1.62
2019-01-24T08:13:53.613Z,-1.62
2019-01-24T08:14:53.697Z,-1.62
2019-01-24T08:15:53.585Z,-1.56
2019-01-24T08:16:53.619Z,-1.62
2019-01-24T08:17:53.557Z,-1.56
2019-01-24T08:18:53.565Z,-1.62
2019-01-24T08:19:53.589Z,-1.56
2019-01-24T08:20:53.553Z,-1.62
2019-01-24T08:21:53.779Z,-1.62
2019-01-24T08:22:53.564Z,-1.62
2019-01-24T08:23:53.577Z,-1.69
2019-01-24T08:24:53.554Z,-1.69
2019-01-24T08:25:53.861Z,-1.69
2019-01-24T08:26:53.600Z,-1.69
2019-01-24T08:27:55.342Z,-1.75
2019-01-24T08:28:53.597Z,-1.69
2019-01-24T08:29:56.016Z,-1.69
2019-01-24T08:30:54.166Z,-1.75
2019-01-24T08:31:53.590Z,-1.69
2019-01-24T08:32:53.803Z,-1.75
2019-01-24T08:33:53.942Z,-1.75
2019-01-24T08:34:53.726Z,-1.75
2019-01-24T08:35:53.648Z,-1.75
2019-01-24T08:36:53.492Z,-1.81
2019-01-24T08:37:53.534Z,-1.81
2019-01-24T08:39:00.121Z,-1.94
2019-01-24T08:39:53.557Z,-1.94
2019-01-24T08:40:53.818Z,-1.87
2019-01-24T08:41:55.216Z,-1.87
2019-01-24T08:42:53.691Z,-1.87
2019-01-24T08:43:53.798Z,-2
2019-01-24T08:44:53.469Z,-1.94
2019-01-24T08:45:53.611Z,-1.94
2019-01-24T08:46:53.523Z,-2
2019-01-24T08:47:53.501Z,-2
2019-01-24T08:48:54.319Z,-1.94
2019-01-24T08:49:53.714Z,-1.94
2019-01-24T08:50:53.498Z,-1.94
2019-01-24T08:51:53.610Z,-1.87
2019-01-24T08:52:53.695Z,-1.87
2019-01-24T08:53:53.558Z,-1.87
2019-01-24T08:54:53.824Z,-1.94
2019-01-24T08:55:53.755Z,-1.87
2019-01-24T08:56:53.686Z,-1.94
2019-01-24T08:57:54.146Z,-1.87
2019-01-24T08:58:55.344Z,-1.87
2019-01-24T08:59:53.571Z,-1.81
2019-01-24T09:00:53.483Z,-1.87
2019-01-24T09:01:53.625Z,-1.81
2019-01-24T09:02:53.604Z,-1.81
2019-01-24T09:03:53.867Z,-1.81
2019-01-24T09:04:53.613Z,-1.75
2019-01-24T09:05:54.003Z,-1.75
2019-01-24T09:06:53.782Z,-1.75
2019-01-24T09:07:53.592Z,-1.69
2019-01-24T09:08:53.501Z,-1.69
2019-01-24T09:09:53.845Z,-1.62
2019-01-24T09:10:53.614Z,-1.69
2019-01-24T09:11:53.722Z,-1.62
2019-01-24T09:12:53.608Z,-1.75
2019-01-24T09:13:54.071Z,-1.75
2019-01-24T09:14:53.810Z,-1.75
2019-01-24T09:15:53.778Z,-1.75
2019-01-24T09:16:53.512Z,-1.81
2019-01-24T09:17:53.595Z,-1.75
2019-01-24T09:18:53.417Z,-1.75
2019-01-24T09:19:54.386Z,-1.75
2019-01-24T09:20:53.698Z,-1.75
2019-01-24T09:21:53.621Z,-1.69
2019-01-24T09:22:55.868Z,-1.69
2019-01-24T09:23:53.541Z,-1.69
2019-01-24T09:24:53.431Z,-1.62
2019-01-24T09:25:53.664Z,-1.69
2019-01-24T09:26:53.725Z,-1.69
2019-01-24T09:27:53.394Z,-1.69
2019-01-24T09:28:55.247Z,-1.75
2019-01-24T09:29:53.475Z,-1.69
2019-01-24T09:30:55.035Z,-1.69
2019-01-24T09:31:53.518Z,-1.62
2019-01-24T09:32:53.502Z,-1.62
2019-01-24T09:33:53.519Z,-1.56
2019-01-24T09:34:53.545Z,-1.5
2019-01-24T09:35:53.427Z,-1.44
2019-01-24T09:36:53.570Z,-1.5
2019-01-24T09:37:53.501Z,-1.56
2019-01-24T09:38:55.217Z,-1.56
2019-01-24T09:39:55.219Z,-1.62
2019-01-24T09:40:53.838Z,-1.56
2019-01-24T09:41:53.700Z,-1.62
2019-01-24T09:42:53.614Z,-1.56
2019-01-24T09:43:53.564Z,-1.62
2019-01-24T09:44:53.473Z,-1.56
2019-01-24T09:45:53.661Z,-1.56
2019-01-24T09:46:53.502Z,-1.56
2019-01-24T09:47:53.614Z,-1.56
2019-01-24T09:48:53.468Z,-1.56
2019-01-24T09:49:53.477Z,-1.5
2019-01-24T09:50:53.363Z,-1.5
2019-01-24T09:51:53.500Z,-1.44
2019-01-24T09:52:53.579Z,-1.44
2019-01-24T09:53:53.333Z,-1.44
2019-01-24T09:54:53.446Z,-1.44
2019-01-24T09:55:53.357Z,-1.37
2019-01-24T09:56:53.371Z,-1.37
2019-01-24T09:57:53.433Z,-1.37
2019-01-24T09:58:53.488Z,-1.37
2019-01-24T09:59:54.273Z,-1.37
2019-01-24T10:00:53.323Z,-1.31
2019-01-24T10:01:53.339Z,-1.31
2019-01-24T10:02:53.544Z,-1.31
2019-01-24T10:03:53.595Z,-1.31
2019-01-24T10:04:53.386Z,-1.31
2019-01-24T10:05:53.351Z,-1.25
2019-01-24T10:06:53.963Z,-1.31
2019-01-24T10:07:55.090Z,-1.37
2019-01-24T10:08:54.537Z,-1.31
2019-01-24T10:09:53.424Z,-1.31
2019-01-24T10:10:53.603Z,-1.37
2019-01-24T10:11:54.890Z,-1.31
2019-01-24T10:13:00.545Z,-1.31
2019-01-24T10:13:53.496Z,-1.37
2019-01-24T10:14:53.606Z,-1.37
2019-01-24T10:15:53.582Z,-1.44
2019-01-24T10:16:53.479Z,-1.37
2019-01-24T10:17:53.804Z,-1.37
2019-01-24T10:18:53.302Z,-1.31
2019-01-24T10:19:53.559Z,-1.31
2019-01-24T10:20:53.447Z,-1.31
2019-01-24T10:21:53.868Z,-1.37
2019-01-24T10:22:53.887Z,-1.31
2019-01-24T10:23:53.470Z,-1.31
2019-01-24T10:26:53.897Z,-1.25
2019-01-24T10:27:54.766Z,-1.19
2019-01-24T10:28:54.423Z,-1.25
2019-01-24T10:29:53.655Z,-1.25
2019-01-24T10:30:56.648Z,-1.25
2019-01-24T10:32:54.534Z,-1.31
2019-01-24T10:33:54.421Z,-1.37
2019-01-24T10:34:53.371Z,-1.37
2019-01-24T10:35:53.337Z,-1.37
2019-01-24T10:36:55.245Z,-1.37
2019-01-24T10:37:54.649Z,-1.37
2019-01-24T10:38:53.526Z,-1.44
2019-01-24T10:39:55.421Z,-1.44
2019-01-24T10:40:53.604Z,-1.44
2019-01-24T10:41:53.601Z,-1.37
2019-01-24T10:42:53.497Z,-1.37
2019-01-24T10:44:01.683Z,-1.37
2019-01-24T10:44:53.438Z,-1.37
2019-01-24T10:45:53.544Z,-1.37
2019-01-24T10:46:53.762Z,-1.37
2019-01-24T10:47:56.342Z,-1.44
2019-01-24T10:49:00.689Z,-1.44
2019-01-24T10:49:55.139Z,-1.44
2019-01-24T10:51:53.477Z,-1.44
2019-01-24T10:52:53.807Z,-1.44
2019-01-24T10:53:54.809Z,-1.37
2019-01-24T10:54:53.596Z,-1.37
2019-01-24T10:55:55.049Z,-1.37
2019-01-24T10:56:56.269Z,-1.37
2019-01-24T10:57:54.237Z,-1.37
2019-01-24T10:58:53.315Z,-1.37
2019-01-24T10:59:53.515Z,-1.31
2019-01-24T11:00:53.467Z,-1.37
2019-01-24T11:01:53.332Z,-1.31
2019-01-24T11:02:53.389Z,-1.31
2019-01-24T11:03:53.318Z,-1.31
2019-01-24T11:04:53.483Z,-1.31
2019-01-24T11:05:53.408Z,-1.25
2019-01-24T11:06:54.324Z,-1.25
2019-01-24T11:07:53.379Z,-1.25
2019-01-24T11:08:53.502Z,-1.25
2019-01-24T11:09:53.534Z,-1.19
2019-01-24T11:10:53.347Z,-1.19
2019-01-24T11:11:53.861Z,-1.19
2019-01-24T11:12:53.290Z,-1.12
2019-01-24T11:13:53.317Z,-1.12
2019-01-24T11:14:53.598Z,-1.06
2019-01-24T11:15:53.388Z,-1.06
2019-01-24T11:16:53.593Z,-1.06
2019-01-24T11:17:55.100Z,-1.06
2019-01-24T11:18:53.526Z,-1.06
2019-01-24T11:19:53.279Z,-1.06
2019-01-24T11:20:53.439Z,-1.19
2019-01-24T11:21:53.372Z,-1.06
2019-01-24T11:22:53.381Z,-1.12
2019-01-24T11:23:53.510Z,-1.12
2019-01-24T11:25:53.503Z,-1.12
2019-01-24T11:26:53.357Z,-1.12
2019-01-24T11:27:53.306Z,-1.12
2019-01-24T11:28:53.280Z,-1.12
2019-01-24T11:29:53.223Z,-1.12
2019-01-24T11:30:53.459Z,-1.19
2019-01-24T11:31:53.208Z,-1.19
2019-01-24T11:32:53.233Z,-1.12
2019-01-24T11:33:53.331Z,-1.12
2019-01-24T11:35:53.262Z,-1.12
2019-01-24T11:36:57.660Z,-1.06
2019-01-24T11:37:54.316Z,-1.06
2019-01-24T11:38:56.596Z,-1.12
2019-01-24T11:39:53.361Z,-1.19
2019-01-24T11:40:53.405Z,-1.19
2019-01-24T11:41:53.228Z,-1.19
2019-01-24T11:42:53.406Z,-1.19
2019-01-24T11:43:53.223Z,-1.19
2019-01-24T11:44:53.222Z,-1.12
2019-01-24T11:45:53.633Z,-1.06
2019-01-24T11:46:53.229Z,-1.19
2019-01-24T11:47:53.500Z,-1.25
2019-01-24T11:48:53.587Z,-1.19
2019-01-24T11:49:53.210Z,-1.19
2019-01-24T11:50:53.269Z,-1.19
2019-01-24T11:51:53.653Z,-1.19
2019-01-24T11:52:53.280Z,-1.19
2019-01-24T11:53:53.571Z,-1.12
2019-01-24T11:54:53.253Z,-1.12
2019-01-24T11:55:53.175Z,-1.19
2019-01-24T11:56:53.583Z,-1.19
2019-01-24T11:57:53.317Z,-1.19
2019-01-24T11:58:53.366Z,-1.19
2019-01-24T11:59:53.195Z,-1.19
2019-01-24T12:00:53.367Z,-1.12
2019-01-24T12:01:53.285Z,-1.06
2019-01-24T12:02:53.376Z,-1.06
2019-01-24T12:03:53.192Z,-1.06
2019-01-24T12:04:53.374Z,-1
2019-01-24T12:05:53.427Z,-1.06
2019-01-24T12:06:53.323Z,-1.06
2019-01-24T12:07:53.344Z,-1.06
2019-01-24T12:08:53.125Z,-1
2019-01-24T12:09:53.238Z,-1
2019-01-24T12:10:53.424Z,-0.88
2019-01-24T12:11:53.996Z,-0.94
2019-01-24T12:12:53.333Z,-0.94
2019-01-24T12:13:53.260Z,-0.94
2019-01-24T12:14:53.454Z,-1.06
2019-01-24T12:15:53.251Z,-1
2019-01-24T12:16:53.108Z,-1
2019-01-24T12:17:53.136Z,-1
2019-01-24T12:18:53.301Z,-0.94
2019-01-24T12:19:54.963Z,-0.94
2019-01-24T12:20:53.210Z,-0.94
2019-01-24T12:21:53.676Z,-1
2019-01-24T12:22:53.477Z,-1
2019-01-24T12:23:53.716Z,-1
2019-01-24T12:24:53.112Z,-1
2019-01-24T12:25:53.323Z,-1
2019-01-24T12:26:53.492Z,-1
2019-01-24T12:27:54.056Z,-0.94
2019-01-24T12:28:53.164Z,-0.88
2019-01-24T12:29:53.234Z,-0.88
2019-01-24T12:30:53.240Z,-0.88
2019-01-24T12:31:52.880Z,-0.88
2019-01-24T12:32:53.581Z,-0.88
2019-01-24T12:33:53.663Z,-0.81
2019-01-24T12:34:53.128Z,-0.88
2019-01-24T12:35:53.375Z,-0.94
2019-01-24T12:36:56.885Z,-0.94
2019-01-24T12:37:53.143Z,-0.94
2019-01-24T12:38:53.842Z,-0.94
2019-01-24T12:39:53.459Z,-0.88
2019-01-24T12:40:53.401Z,-0.88
2019-01-24T12:41:53.096Z,-0.88
2019-01-24T12:42:53.536Z,-0.88
2019-01-24T12:43:53.075Z,-0.94
2019-01-24T12:44:53.149Z,-0.94
2019-01-24T12:45:53.755Z,-0.94
2019-01-24T12:46:53.355Z,-0.94
2019-01-24T12:47:53.398Z,-0.94
2019-01-24T12:48:53.479Z,-0.94
2019-01-24T12:49:53.136Z,-0.94
2019-01-24T12:50:53.496Z,-0.94
2019-01-24T12:51:53.303Z,-0.94
2019-01-24T12:52:53.141Z,-0.94
2019-01-24T12:53:53.084Z,-0.88
2019-01-24T12:54:53.022Z,-0.94
2019-01-24T12:55:53.126Z,-0.88
2019-01-24T12:56:53.088Z,-0.94
2019-01-24T12:57:53.347Z,-0.94
2019-01-24T12:59:07.983Z,-0.88
2019-01-24T12:59:54.273Z,-1
2019-01-24T13:00:53.361Z,-1
2019-01-24T13:01:53.259Z,-1
2019-01-24T13:02:54.905Z,-1
2019-01-24T13:03:53.493Z,-1
2019-01-24T13:04:53.318Z,-1